Time;durP1;ratioP1;P1;durP2;ratioP2;P2;SDS_P1;SDS_P2;PMS_P1;PMS_P2;Temp;Humidity;BMP_temperature;BMP_pressure;BME280_temperature;BME280_humidity;BME280_pressure;Samples;Min_cycle;Max_cycle;Signal;HPM_P1;HPM_P2
2023/06/25 00:02:12;;;;;;;317.38;218.95;;;28.30;99.90;;;;;;5092818;28;20032;-68
2023/06/25 00:04:39;;;;;;;190.05;132.52;;;28.30;99.90;;;;;;5093144;28;20392;-69
2023/06/25 00:07:05;;;;;;;127.15;90.38;;;28.30;99.90;;;;;;5091724;28;20081;-69
2023/06/25 00:09:32;;;;;;;893.72;669.03;;;28.30;99.90;;;;;;5075474;28;20431;-69
2023/06/25 00:11:59;;;;;;;618.83;444.77;;;28.40;99.90;;;;;;5073954;28;20031;-68
2023/06/25 00:14:25;;;;;;;688.47;545.88;;;28.40;99.90;;;;;;5076942;28;20032;-70
2023/06/25 00:16:57;;;;;;;246.85;189.32;;;28.40;99.90;;;;;;5077878;28;20017;-69
2023/06/25 00:19:26;;;;;;;418.20;330.13;;;28.30;99.90;;;;;;5076250;28;20024;-69
2023/06/25 00:21:53;;;;;;;275.33;214.20;;;28.40;99.90;;;;;;5076419;28;20411;-68
2023/06/25 00:24:19;;;;;;;138.93;99.03;;;28.30;99.90;;;;;;5076454;28;20028;-72
2023/06/25 00:26:46;;;;;;;122.65;90.05;;;28.20;99.90;;;;;;5076576;28;20020;-71
2023/06/25 00:29:13;;;;;;;582.75;454.75;;;28.30;99.90;;;;;;5076203;28;20035;-69
2023/06/25 00:31:41;;;;;;;433.50;349.10;;;28.30;99.90;;;;;;5076309;28;20376;-70
2023/06/25 00:34:08;;;;;;;316.73;213.82;;;28.30;99.90;;;;;;5076424;28;20027;-70
2023/06/25 00:36:36;;;;;;;89.97;64.63;;;28.30;99.90;;;;;;5076363;28;20095;-69
2023/06/25 00:39:06;;;;;;;333.95;230.68;;;28.30;99.90;;;;;;5078760;28;20024;-68
2023/06/25 00:41:33;;;;;;;93.38;63.17;;;28.30;99.90;;;;;;5076253;28;20028;-69
2023/06/25 00:44:00;;;;;;;378.17;265.95;;;28.30;99.90;;;;;;5076186;28;20121;-69
2023/06/25 00:46:26;;;;;;;1414.55;999.90;;;28.30;99.90;;;;;;5076001;28;20028;-69
2023/06/25 00:48:53;;;;;;;750.65;669.83;;;28.30;99.90;;;;;;5078114;28;20036;-68
2023/06/25 00:51:27;;;;;;;161.52;119.22;;;28.30;99.90;;;;;;5079622;28;20151;-68
2023/06/25 00:53:54;;;;;;;1437.88;999.90;;;28.30;99.90;;;;;;5096342;28;20024;-67
2023/06/25 00:56:29;;;;;;;95.55;61.75;;;28.30;99.90;;;;;;5092683;28;20074;-68
2023/06/25 00:59:01;;;;;;;918.92;717.50;;;28.40;99.90;;;;;;5096080;28;20028;-67
2023/06/25 01:01:54;;;;;;;90.72;64.88;;;28.40;99.90;;;;;;5096089;28;20082;-69
2023/06/25 01:04:26;;;;;;;483.85;430.60;;;28.40;99.90;;;;;;5095778;28;20138;-68
2023/06/25 01:06:57;;;;;;;256.05;208.35;;;28.50;99.90;;;;;;5095863;28;20028;-68
2023/06/25 01:09:25;;;;;;;678.85;533.25;;;28.50;99.90;;;;;;5079953;28;20028;-68
2023/06/25 01:12:05;;;;;;;889.72;678.60;;;28.60;99.90;;;;;;5075619;28;20040;-68
2023/06/25 01:14:35;;;;;;;1237.32;913.10;;;28.70;99.90;;;;;;5075683;28;20024;-68
2023/06/25 01:17:05;;;;;;;1011.30;817.72;;;28.80;99.90;;;;;;5075354;28;20054;-68
2023/06/25 01:19:35;;;;;;;686.75;516.85;;;28.90;99.90;;;;;;5075689;28;20024;-68
2023/06/25 01:22:03;;;;;;;239.10;189.50;;;28.90;99.90;;;;;;5074483;28;20427;-68
2023/06/25 01:24:34;;;;;;;268.63;228.82;;;28.90;99.90;;;;;;5078195;28;20119;-67
2023/06/25 01:27:02;;;;;;;549.40;464.67;;;29.00;99.90;;;;;;5083995;28;20043;-68
2023/06/25 01:29:29;;;;;;;779.60;683.95;;;29.10;99.90;;;;;;5087277;28;20443;-70
2023/06/25 01:31:57;;;;;;;372.15;316.30;;;29.10;99.90;;;;;;5087196;28;20476;-68
2023/06/25 01:34:24;;;;;;;189.38;133.55;;;29.10;99.90;;;;;;5079103;28;20499;-70
2023/06/25 01:36:52;;;;;;;279.73;180.02;;;29.10;99.90;;;;;;5085104;28;20028;-69
2023/06/25 01:39:22;;;;;;;362.27;251.02;;;29.10;99.90;;;;;;5076084;28;20020;-69
2023/06/25 01:41:50;;;;;;;148.68;102.90;;;29.10;99.90;;;;;;5081407;28;20028;-69
2023/06/25 01:44:27;;;;;;;123.35;84.97;;;29.10;99.90;;;;;;5095431;28;20028;-68
2023/06/25 01:46:54;;;;;;;603.08;514.67;;;29.20;99.90;;;;;;5094574;28;20034;-68
2023/06/25 01:49:21;;;;;;;133.88;92.13;;;29.20;99.90;;;;;;5093970;28;20024;-68
2023/06/25 01:51:48;;;;;;;128.98;86.88;;;29.30;99.90;;;;;;5093335;28;20016;-68
2023/06/25 01:54:15;;;;;;;128.35;88.15;;;29.30;99.90;;;;;;5085856;28;20342;-68
2023/06/25 01:56:42;;;;;;;239.05;164.45;;;29.40;99.90;;;;;;5083537;28;20086;-69
2023/06/25 01:59:10;;;;;;;167.35;113.13;;;29.40;99.90;;;;;;5094738;28;20045;-68
2023/06/25 02:01:37;;;;;;;164.27;111.65;;;29.50;99.90;;;;;;5093198;28;20020;-68
2023/06/25 02:04:04;;;;;;;144.50;97.07;;;29.50;99.90;;;;;;5093652;28;20059;-68
2023/06/25 02:06:30;;;;;;;160.50;112.90;;;29.50;99.90;;;;;;5092452;28;20021;-69
2023/06/25 02:08:57;;;;;;;140.18;99.50;;;29.50;99.90;;;;;;5088048;28;20028;-68
2023/06/25 02:11:23;;;;;;;133.50;92.40;;;29.60;99.90;;;;;;5074410;28;20025;-69
2023/06/25 02:13:50;;;;;;;133.18;89.38;;;29.60;99.90;;;;;;5087724;28;20031;-68
2023/06/25 02:16:16;;;;;;;127.20;85.53;;;29.60;99.90;;;;;;5090541;28;20051;-68
2023/06/25 02:18:43;;;;;;;106.75;75.70;;;29.70;99.90;;;;;;5094685;28;20023;-69
2023/06/25 02:21:09;;;;;;;99.30;69.75;;;29.80;99.90;;;;;;5088228;28;20442;-69
2023/06/25 02:23:36;;;;;;;101.25;75.43;;;29.80;99.90;;;;;;5076896;28;20020;-68
2023/06/25 02:26:02;;;;;;;76.18;56.42;;;29.80;99.90;;;;;;5078071;28;20037;-69
2023/06/25 02:28:29;;;;;;;92.07;60.03;;;29.90;99.90;;;;;;5073905;28;20468;-68
2023/06/25 02:30:56;;;;;;;104.75;71.55;;;30.00;99.90;;;;;;5082424;28;20040;-68
2023/06/25 02:33:22;;;;;;;65.70;48.70;;;30.00;99.90;;;;;;5088576;28;20020;-67
2023/06/25 02:35:52;;;;;;;65.55;48.10;;;30.00;99.90;;;;;;5073293;28;20496;-68
2023/06/25 02:38:18;;;;;;;58.88;45.20;;;30.00;99.90;;;;;;5088760;28;20054;-71
2023/06/25 02:40:45;;;;;;;59.97;43.35;;;30.00;99.90;;;;;;5092054;28;20035;-68
2023/06/25 02:43:11;;;;;;;64.55;44.10;;;30.10;99.90;;;;;;5095589;28;20024;-68
2023/06/25 02:45:38;;;;;;;72.30;48.58;;;30.10;99.90;;;;;;5094722;28;20024;-68
2023/06/25 02:48:05;;;;;;;60.38;44.08;;;30.20;99.90;;;;;;5099311;28;20031;-68
2023/06/25 02:50:31;;;;;;;57.55;42.20;;;30.20;99.90;;;;;;5110203;28;20024;-67
2023/06/25 02:52:59;;;;;;;64.10;46.20;;;30.10;99.90;;;;;;5086460;28;20047;-67
2023/06/25 02:55:26;;;;;;;55.88;43.50;;;30.20;99.90;;;;;;5096846;28;20024;-68
2023/06/25 02:57:52;;;;;;;54.97;41.28;;;30.20;99.90;;;;;;5095671;28;20055;-67
2023/06/25 03:00:19;;;;;;;54.13;38.50;;;30.30;99.90;;;;;;5087716;28;20035;-68
2023/06/25 03:02:45;;;;;;;48.88;35.92;;;30.40;99.90;;;;;;5095127;28;20020;-68
2023/06/25 03:05:12;;;;;;;51.75;35.88;;;30.40;99.90;;;;;;5093698;28;20020;-67
2023/06/25 03:07:55;;;;;;;57.28;38.63;;;30.40;99.90;;;;;;5093644;28;20050;-69
2023/06/25 03:10:33;;;;;;;193.95;127.35;;;30.40;99.90;;;;;;5097618;28;20044;-67
2023/06/25 03:12:59;;;;;;;51.67;37.50;;;30.40;99.90;;;;;;5106111;28;20490;-68
2023/06/25 03:15:26;;;;;;;81.10;59.22;;;30.50;99.90;;;;;;5094791;28;20499;-68
2023/06/25 03:17:52;;;;;;;524.47;335.88;;;30.50;99.90;;;;;;5093899;28;20036;-69
2023/06/25 03:20:19;;;;;;;248.35;190.93;;;30.50;99.90;;;;;;5082009;28;20029;-69
2023/06/25 03:22:46;;;;;;;54.75;38.67;;;30.50;99.90;;;;;;5073612;28;20054;-67
2023/06/25 03:25:12;;;;;;;594.10;413.15;;;30.50;99.90;;;;;;5072948;28;20048;-66
2023/06/25 03:27:39;;;;;;;135.43;97.78;;;30.50;99.90;;;;;;5073530;28;20488;-67
2023/06/25 03:30:07;;;;;;;330.50;259.02;;;30.50;99.90;;;;;;5077231;28;20139;-68
2023/06/25 03:32:34;;;;;;;229.95;146.23;;;30.50;99.90;;;;;;5092203;28;20020;-66
2023/06/25 03:35:00;;;;;;;86.60;57.30;;;30.60;99.90;;;;;;5093344;28;20020;-67
2023/06/25 03:37:27;;;;;;;51.35;37.58;;;30.70;99.90;;;;;;5080082;28;20025;-69
2023/06/25 03:39:53;;;;;;;56.60;36.97;;;30.70;99.90;;;;;;5092193;28;20028;-69
2023/06/25 03:45:05;;;;;;;48.35;36.85;;;30.70;99.90;;;;;;5074038;28;20032;-67
2023/06/25 03:47:32;;;;;;;69.55;43.75;;;30.70;99.90;;;;;;5076622;28;20028;-69
2023/06/25 03:49:58;;;;;;;57.90;40.72;;;30.80;99.90;;;;;;5077231;28;20025;-68
2023/06/25 03:52:25;;;;;;;56.88;39.45;;;30.80;99.90;;;;;;5077231;28;20032;-68
2023/06/25 03:54:51;;;;;;;62.47;44.55;;;31.00;99.90;;;;;;5087020;28;20020;-68
2023/06/25 03:57:22;;;;;;;49.25;35.67;;;31.10;99.90;;;;;;5097386;28;20024;-68
2023/06/25 03:59:49;;;;;;;48.22;35.25;;;31.20;99.90;;;;;;5096985;28;20016;-68
2023/06/25 04:02:15;;;;;;;50.63;35.95;;;31.20;99.90;;;;;;5096386;28;20020;-68
2023/06/25 04:04:42;;;;;;;48.22;34.35;;;31.30;99.90;;;;;;5097417;28;20027;-67
2023/06/25 04:07:08;;;;;;;54.85;40.15;;;31.30;99.90;;;;;;5097526;28;20080;-67
2023/06/25 04:09:35;;;;;;;50.28;39.38;;;31.30;99.90;;;;;;5091578;28;20024;-66
2023/06/25 04:12:02;;;;;;;52.88;40.83;;;31.40;99.90;;;;;;5077139;28;20021;-67
2023/06/25 04:14:28;;;;;;;55.13;39.65;;;31.50;99.90;;;;;;5083562;28;20031;-67
2023/06/25 04:16:55;;;;;;;56.10;40.80;;;31.50;99.90;;;;;;5083403;28;20024;-66
2023/06/25 04:19:21;;;;;;;43.17;34.03;;;31.60;99.90;;;;;;5088378;28;20380;-67
2023/06/25 04:21:48;;;;;;;49.75;33.72;;;31.60;99.90;;;;;;5092185;28;20016;-66
2023/06/25 04:24:14;;;;;;;85.13;61.95;;;31.60;99.90;;;;;;5079840;28;20021;-67
2023/06/25 04:26:41;;;;;;;50.78;35.75;;;31.70;99.90;;;;;;5090995;28;20024;-66
2023/06/25 04:29:07;;;;;;;55.30;40.13;;;31.70;99.90;;;;;;5085059;28;20051;-66
2023/06/25 04:31:34;;;;;;;41.63;34.13;;;31.70;99.90;;;;;;5083494;28;20032;-65
2023/06/25 04:34:00;;;;;;;43.22;33.45;;;31.70;99.90;;;;;;5080135;28;20111;-66
2023/06/25 04:36:27;;;;;;;52.05;39.70;;;31.70;99.90;;;;;;5083705;28;20024;-67
2023/06/25 04:38:53;;;;;;;44.88;32.83;;;31.70;99.90;;;;;;5082009;28;20051;-66
2023/06/25 04:41:22;;;;;;;76.03;49.67;;;31.80;99.90;;;;;;5080400;28;20963;-70
2023/06/25 04:43:49;;;;;;;48.00;35.85;;;31.80;99.90;;;;;;5083177;28;20086;-67
2023/06/25 04:46:16;;;;;;;99.80;63.70;;;31.90;99.90;;;;;;5083803;28;20480;-68
2023/06/25 04:48:45;;;;;;;44.55;33.38;;;32.10;99.90;;;;;;5083894;28;20054;-67
2023/06/25 04:51:12;;;;;;;47.08;35.95;;;32.10;99.90;;;;;;5081812;28;20500;-67
2023/06/25 04:53:42;;;;;;;51.63;36.47;;;32.20;99.90;;;;;;5081419;28;20024;-68
2023/06/25 04:56:09;;;;;;;46.45;35.40;;;32.10;99.90;;;;;;5084051;28;20036;-64
2023/06/25 04:58:35;;;;;;;44.10;34.45;;;32.10;99.90;;;;;;5084244;28;20021;-64
2023/06/25 05:01:02;;;;;;;39.38;31.70;;;32.10;99.90;;;;;;5079336;28;20025;-72
2023/06/25 05:03:29;;;;;;;41.50;32.40;;;32.20;99.90;;;;;;5076412;28;20020;-75
2023/06/25 05:05:57;;;;;;;41.05;32.13;;;32.30;99.90;;;;;;5075623;28;20506;-72
2023/06/25 05:08:24;;;;;;;38.25;31.20;;;32.30;99.90;;;;;;5076021;28;20526;-71
2023/06/25 05:10:50;;;;;;;38.30;31.23;;;32.40;99.90;;;;;;5074478;28;20032;-69
2023/06/25 05:13:17;;;;;;;346.35;285.83;;;32.40;99.90;;;;;;5089815;28;20016;-73
2023/06/25 05:15:43;;;;;;;47.65;35.88;;;32.50;99.90;;;;;;5083529;28;20029;-74
2023/06/25 05:18:11;;;;;;;39.60;30.27;;;32.60;99.90;;;;;;5082952;28;20040;-74
2023/06/25 05:20:38;;;;;;;44.15;32.58;;;32.70;99.90;;;;;;5084242;28;20021;-74
2023/06/25 05:23:05;;;;;;;40.03;34.58;;;32.70;99.90;;;;;;5086831;28;20055;-74
2023/06/25 05:25:33;;;;;;;36.83;30.45;;;32.60;99.90;;;;;;5095792;28;20028;-75
2023/06/25 05:28:04;;;;;;;41.22;31.85;;;32.60;99.90;;;;;;5095678;28;20028;-74
2023/06/25 05:30:31;;;;;;;40.28;32.63;;;32.60;99.90;;;;;;5095269;28;20077;-73
2023/06/25 05:32:58;;;;;;;40.90;31.17;;;32.60;99.90;;;;;;5095621;28;20066;-73
2023/06/25 05:35:28;;;;;;;42.25;32.88;;;32.60;99.90;;;;;;5095685;28;20020;-74
2023/06/25 05:37:59;;;;;;;44.83;32.85;;;32.60;99.90;;;;;;5095338;28;20027;-74
2023/06/25 05:40:28;;;;;;;43.45;33.03;;;32.60;99.90;;;;;;5095487;28;20144;-73
2023/06/25 05:42:55;;;;;;;47.08;34.55;;;32.70;99.90;;;;;;5095453;28;20024;-68
2023/06/25 05:45:22;;;;;;;42.90;33.30;;;32.80;99.90;;;;;;5095314;28;20118;-68
2023/06/25 05:47:49;;;;;;;42.70;32.25;;;32.80;99.90;;;;;;5095342;28;20028;-73
2023/06/25 05:50:15;;;;;;;39.03;31.17;;;32.90;99.90;;;;;;5095184;28;20024;-73
2023/06/25 05:52:43;;;;;;;40.03;30.75;;;32.90;99.90;;;;;;5095212;28;20020;-73
2023/06/25 05:55:11;;;;;;;40.50;31.45;;;32.80;99.90;;;;;;5095281;28;20019;-73
2023/06/25 05:57:38;;;;;;;37.17;31.77;;;32.80;99.90;;;;;;5095167;28;20020;-72
2023/06/25 06:00:05;;;;;;;39.05;31.23;;;32.80;99.90;;;;;;5095005;28;20099;-73
2023/06/25 06:02:32;;;;;;;41.95;33.03;;;32.90;99.90;;;;;;5095334;28;20365;-72
2023/06/25 06:04:58;;;;;;;43.10;32.17;;;33.10;99.90;;;;;;5095265;28;20058;-73
2023/06/25 06:07:25;;;;;;;41.03;30.45;;;33.20;99.90;;;;;;5094911;28;20100;-70
2023/06/25 06:09:51;;;;;;;40.42;29.83;;;33.20;99.90;;;;;;5093890;28;20468;-71
2023/06/25 06:12:18;;;;;;;38.13;30.83;;;33.20;99.90;;;;;;5094880;28;20024;-71
2023/06/25 06:14:44;;;;;;;41.35;32.22;;;33.30;99.90;;;;;;5094704;28;20031;-72
2023/06/25 06:17:11;;;;;;;42.20;33.20;;;33.40;99.90;;;;;;5095021;28;20016;-73
2023/06/25 06:19:37;;;;;;;38.80;30.88;;;33.50;99.90;;;;;;5094682;28;20020;-72
2023/06/25 06:22:04;;;;;;;40.22;32.53;;;33.50;99.90;;;;;;5094632;28;20065;-70
2023/06/25 06:24:31;;;;;;;40.28;31.02;;;33.50;99.90;;;;;;5094517;28;20487;-70
2023/06/25 06:26:58;;;;;;;37.42;30.98;;;33.50;99.90;;;;;;5093010;28;20024;-73
2023/06/25 06:29:25;;;;;;;39.40;33.30;;;33.40;99.90;;;;;;5086494;28;20056;-70
2023/06/25 06:31:51;;;;;;;43.53;34.45;;;33.40;99.90;;;;;;5072914;28;20179;-70
2023/06/25 06:34:18;;;;;;;44.00;33.80;;;33.50;99.90;;;;;;5074118;28;20028;-71
2023/06/25 06:36:44;;;;;;;40.50;30.90;;;33.50;99.90;;;;;;5074115;28;20465;-69
2023/06/25 06:39:11;;;;;;;44.85;33.83;;;33.60;99.90;;;;;;5081802;28;20396;-72
2023/06/25 06:41:37;;;;;;;41.35;32.35;;;33.60;99.90;;;;;;5094215;28;20030;-72
2023/06/25 06:44:17;;;;;;;36.33;31.25;;;33.70;99.90;;;;;;5094286;28;20024;-72
2023/06/25 06:46:45;;;;;;;40.97;33.22;;;33.70;99.90;;;;;;5093731;28;20069;-72
2023/06/25 06:49:12;;;;;;;42.05;32.38;;;33.80;99.90;;;;;;5093891;28;20028;-73
2023/06/25 06:51:41;;;;;;;38.65;31.73;;;33.80;99.90;;;;;;5093055;28;20016;-72
2023/06/25 06:54:07;;;;;;;46.17;32.70;;;33.90;99.90;;;;;;5093908;28;20383;-72
2023/06/25 06:56:34;;;;;;;37.78;31.35;;;34.00;99.90;;;;;;5093864;28;20019;-71
2023/06/25 06:59:01;;;;;;;43.85;33.13;;;34.00;99.90;;;;;;5093995;28;20047;-71
2023/06/25 07:01:28;;;;;;;39.67;32.05;;;34.00;99.90;;;;;;5092664;28;20423;-71
2023/06/25 07:03:56;;;;;;;50.83;37.08;;;33.90;99.90;;;;;;5093850;28;20024;-71
2023/06/25 07:06:22;;;;;;;49.50;36.13;;;34.00;99.90;;;;;;5093509;28;20039;-71
2023/06/25 07:08:49;;;;;;;40.90;34.28;;;33.90;99.90;;;;;;5093776;28;20511;-72
2023/06/25 07:11:18;;;;;;;40.70;34.00;;;33.90;99.90;;;;;;5093627;28;20041;-73
2023/06/25 07:13:45;;;;;;;40.15;34.42;;;33.90;99.90;;;;;;5093604;28;20058;-72
2023/06/25 07:16:12;;;;;;;43.50;34.47;;;33.90;99.90;;;;;;5093710;28;20044;-73
2023/06/25 07:18:39;;;;;;;43.05;33.90;;;33.80;99.90;;;;;;5093511;28;20028;-74
2023/06/25 07:21:06;;;;;;;40.63;34.63;;;33.80;99.90;;;;;;5093012;28;20024;-74
2023/06/25 07:23:35;;;;;;;42.92;34.53;;;33.80;99.90;;;;;;5093540;28;20020;-74
2023/06/25 07:26:02;;;;;;;48.28;34.65;;;33.80;99.90;;;;;;5093491;28;20055;-74
2023/06/25 07:28:31;;;;;;;39.67;34.67;;;33.90;99.90;;;;;;5093514;28;20496;-73
2023/06/25 07:30:58;;;;;;;44.35;32.90;;;33.80;99.90;;;;;;5093534;28;20040;-74
2023/06/25 07:33:28;;;;;;;44.25;34.13;;;33.70;99.90;;;;;;5113253;28;20827;-72
2023/06/25 07:35:54;;;;;;;43.90;35.28;;;33.70;99.90;;;;;;5113324;28;20020;-72
2023/06/25 07:38:21;;;;;;;43.47;35.75;;;33.70;99.90;;;;;;5113709;28;20464;-72
2023/06/25 07:40:48;;;;;;;39.47;35.22;;;33.70;99.90;;;;;;5113647;28;20487;-72
2023/06/25 07:43:15;;;;;;;41.17;34.60;;;33.70;99.90;;;;;;5113432;28;20020;-74
2023/06/25 07:45:42;;;;;;;43.15;35.08;;;33.70;99.90;;;;;;5113856;28;20352;-73
2023/06/25 07:48:08;;;;;;;43.72;36.88;;;33.70;99.90;;;;;;5113544;28;20024;-73
2023/06/25 07:50:35;;;;;;;45.60;35.95;;;33.60;99.90;;;;;;5113252;28;20023;-74
2023/06/25 07:53:01;;;;;;;41.22;35.75;;;33.60;99.90;;;;;;5112874;28;20165;-75
2023/06/25 07:55:28;;;;;;;45.03;36.33;;;33.60;99.90;;;;;;5113484;28;20027;-75
2023/06/25 07:57:54;;;;;;;44.15;34.53;;;33.50;99.90;;;;;;5113326;28;20012;-74
2023/06/25 08:00:21;;;;;;;42.95;36.05;;;33.60;99.90;;;;;;5113502;28;20024;-75
2023/06/25 08:02:48;;;;;;;52.00;37.22;;;33.70;99.90;;;;;;5095094;28;20456;-76
2023/06/25 08:05:14;;;;;;;46.65;38.55;;;33.70;99.90;;;;;;5113174;28;20039;-73
2023/06/25 08:07:41;;;;;;;52.20;39.88;;;33.70;99.90;;;;;;5113242;28;20020;-75
2023/06/25 08:10:08;;;;;;;42.20;36.50;;;33.80;99.90;;;;;;5113336;28;20024;-76
2023/06/25 08:12:34;;;;;;;39.55;34.47;;;33.70;99.90;;;;;;5113153;28;20069;-75
2023/06/25 08:15:01;;;;;;;47.00;38.55;;;33.70;99.90;;;;;;5113376;28;20016;-74
2023/06/25 08:17:28;;;;;;;47.60;36.45;;;33.70;99.90;;;;;;5113240;28;20356;-74
2023/06/25 08:19:54;;;;;;;44.03;36.78;;;33.70;99.90;;;;;;5113258;28;20024;-76
2023/06/25 08:22:21;;;;;;;47.22;37.45;;;33.80;99.90;;;;;;5113211;28;20472;-76
2023/06/25 08:24:47;;;;;;;46.97;38.13;;;33.80;99.90;;;;;;5094875;28;20024;-75
2023/06/25 08:27:14;;;;;;;46.55;36.58;;;33.80;99.90;;;;;;5113142;28;20019;-76
2023/06/25 08:29:42;;;;;;;48.67;39.80;;;33.80;99.90;;;;;;5112710;28;20063;-76
2023/06/25 08:32:08;;;;;;;46.40;38.08;;;33.80;99.90;;;;;;5113170;28;20109;-76
2023/06/25 08:34:35;;;;;;;48.72;38.72;;;33.80;99.90;;;;;;5098086;28;20543;-76
2023/06/25 08:37:02;;;;;;;45.65;37.40;;;33.70;99.90;;;;;;5116558;28;20037;-76
2023/06/25 08:39:28;;;;;;;51.05;39.28;;;33.70;99.90;;;;;;5116841;28;20062;-75
2023/06/25 08:41:55;;;;;;;49.05;40.83;;;33.70;99.90;;;;;;5116792;28;20015;-76
2023/06/25 08:44:21;;;;;;;44.17;38.65;;;33.70;99.90;;;;;;5116591;28;20099;-75
2023/06/25 08:46:49;;;;;;;46.95;37.78;;;33.60;99.90;;;;;;5116745;28;20019;-76
2023/06/25 08:49:17;;;;;;;48.25;38.28;;;33.60;99.90;;;;;;5116670;28;20070;-77
2023/06/25 08:51:43;;;;;;;48.65;38.95;;;33.60;99.90;;;;;;5116421;28;20468;-78
2023/06/25 08:54:10;;;;;;;49.70;38.00;;;33.70;99.90;;;;;;5116823;28;20027;-78
2023/06/25 08:56:37;;;;;;;51.53;37.35;;;33.70;99.90;;;;;;5116556;28;20090;-77
2023/06/25 08:59:03;;;;;;;53.25;40.38;;;33.60;99.90;;;;;;5116313;28;20110;-75
2023/06/25 09:01:30;;;;;;;51.50;40.50;;;33.60;99.90;;;;;;5116484;28;20042;-76
2023/06/25 09:03:56;;;;;;;50.38;38.97;;;33.60;99.90;;;;;;5116482;28;20027;-74
2023/06/25 09:06:23;;;;;;;51.55;39.65;;;33.50;99.90;;;;;;5116140;28;20043;-74
2023/06/25 09:08:50;;;;;;;52.42;40.10;;;33.50;99.90;;;;;;5116432;28;20384;-75
2023/06/25 09:11:16;;;;;;;45.58;39.08;;;33.40;99.90;;;;;;5116248;28;20414;-74
2023/06/25 09:13:44;;;;;;;51.28;39.03;;;33.40;99.90;;;;;;5097678;28;20031;-75
2023/06/25 09:16:11;;;;;;;50.80;38.58;;;33.40;99.90;;;;;;5116200;28;20016;-75
2023/06/25 09:18:38;;;;;;;52.17;38.67;;;33.50;99.90;;;;;;5116035;28;20524;-76
2023/06/25 09:21:07;;;;;;;53.08;37.80;;;33.50;99.90;;;;;;5115828;28;20120;-73
2023/06/25 09:23:36;;;;;;;49.15;37.42;;;33.50;99.90;;;;;;5115950;28;20468;-73
2023/06/25 09:26:09;;;;;;;53.60;37.47;;;33.50;99.90;;;;;;5116030;28;20065;-74
2023/06/25 09:28:48;;;;;;;47.60;37.70;;;33.50;99.90;;;;;;5115912;28;20099;-73
2023/06/25 09:31:18;;;;;;;53.60;40.28;;;33.60;99.90;;;;;;5106783;28;20039;-73
2023/06/25 09:33:52;;;;;;;50.90;37.97;;;33.60;99.90;;;;;;5099531;28;20419;-70
2023/06/25 09:36:18;;;;;;;50.85;39.38;;;33.70;99.90;;;;;;5105959;28;20037;-73
2023/06/25 09:38:49;;;;;;;67.32;48.35;;;33.60;99.90;;;;;;5116123;28;20368;-73
2023/06/25 09:41:16;;;;;;;64.93;48.70;;;33.60;99.90;;;;;;5100244;28;20657;-69
2023/06/25 09:43:44;;;;;;;54.10;42.03;;;33.70;99.90;;;;;;5104313;27;20073;-69
2023/06/25 09:46:12;;;;;;;53.05;40.42;;;33.70;99.90;;;;;;5102946;28;20429;-73
2023/06/25 09:48:41;;;;;;;48.30;38.40;;;33.70;99.90;;;;;;5101277;28;20032;-70
2023/06/25 09:51:11;;;;;;;50.72;38.42;;;33.70;99.90;;;;;;5102986;28;20036;-73
2023/06/25 09:53:42;;;;;;;48.30;37.67;;;33.60;99.90;;;;;;5101491;28;20024;-73
2023/06/25 09:56:10;;;;;;;66.75;46.47;;;33.60;99.90;;;;;;5086780;28;20119;-72
2023/06/25 09:58:37;;;;;;;56.90;40.67;;;33.60;99.90;;;;;;5104600;28;20055;-72
2023/06/25 10:01:04;;;;;;;56.90;45.00;;;33.60;99.90;;;;;;5097450;28;20729;-70
2023/06/25 10:03:33;;;;;;;55.47;42.78;;;33.60;99.90;;;;;;5102857;28;20028;-70
2023/06/25 10:05:59;;;;;;;61.08;44.58;;;33.70;99.90;;;;;;5113529;27;20048;-72
2023/06/25 10:08:27;;;;;;;55.08;40.22;;;33.60;99.90;;;;;;5108658;28;20103;-70
2023/06/25 10:11:01;;;;;;;62.67;43.88;;;33.60;99.90;;;;;;5114563;28;20081;-72
2023/06/25 10:13:28;;;;;;;66.97;47.17;;;33.60;99.90;;;;;;5115768;28;20023;-73
2023/06/25 10:15:59;;;;;;;74.60;53.78;;;33.60;99.90;;;;;;5102591;28;20016;-71
2023/06/25 10:18:26;;;;;;;89.13;54.53;;;33.60;99.90;;;;;;5084152;28;20740;-73
2023/06/25 10:20:57;;;;;;;74.60;52.80;;;33.60;99.90;;;;;;5102476;28;20467;-75
2023/06/25 10:23:24;;;;;;;82.87;54.40;;;33.50;99.90;;;;;;5100632;28;20049;-72
2023/06/25 10:25:58;;;;;;;61.75;42.33;;;33.40;99.90;;;;;;5094817;28;20281;-74
2023/06/25 10:28:34;;;;;;;60.47;42.70;;;33.10;99.90;;;;;;5076267;28;20069;-70
2023/06/25 10:31:14;;;;;;;79.22;57.25;;;32.50;99.90;;;;;;5094262;28;20044;-73
2023/06/25 10:33:42;;;;;;;51.42;32.75;;;32.50;99.90;;;;;;5084392;28;20022;-68
2023/06/25 10:36:09;;;;;;;51.63;33.90;;;32.30;99.90;;;;;;5107168;28;20430;-71
2023/06/25 10:38:37;;;;;;;85.18;41.22;;;31.90;99.90;;;;;;5104194;28;20050;-72
2023/06/25 10:41:03;;;;;;;85.72;49.47;;;31.90;99.90;;;;;;5103093;28;20049;-74
2023/06/25 10:43:30;;;;;;;92.53;67.72;;;31.90;99.90;;;;;;5114974;28;20015;-72
2023/06/25 10:45:57;;;;;;;82.97;54.25;;;31.80;99.90;;;;;;5115024;28;20131;-73
2023/06/25 10:48:25;;;;;;;55.75;37.90;;;31.70;99.90;;;;;;5114743;28;20020;-73
2023/06/25 10:50:53;;;;;;;383.55;300.88;;;31.40;99.90;;;;;;5113309;28;20464;-74
2023/06/25 10:53:22;;;;;;;79.00;48.50;;;31.30;99.90;;;;;;5094325;28;20024;-73
2023/06/25 10:55:53;;;;;;;100.55;67.43;;;31.20;99.90;;;;;;5100463;28;20016;-71
2023/06/25 10:58:24;;;;;;;63.45;42.40;;;31.10;99.90;;;;;;5104523;28;20055;-73
2023/06/25 11:00:55;;;;;;;67.07;42.10;;;31.20;99.90;;;;;;5103772;28;20547;-71
2023/06/25 11:03:23;;;;;;;35.80;24.40;;;31.20;99.90;;;;;;5104786;28;20059;-71
2023/06/25 11:05:50;;;;;;;32.63;21.48;;;31.00;99.90;;;;;;5103284;28;20028;-71
2023/06/25 11:08:16;;;;;;;26.25;19.83;;;31.00;99.90;;;;;;5102892;27;20024;-66
2023/06/25 11:10:44;;;;;;;27.45;18.38;;;30.90;99.90;;;;;;5111047;27;20626;-67
2023/06/25 11:13:12;;;;;;;23.83;17.98;;;30.80;99.90;;;;;;5098968;28;20024;-66
2023/06/25 11:15:42;;;;;;;34.20;26.05;;;30.90;99.90;;;;;;5104464;28;20077;-68
2023/06/25 11:18:09;;;;;;;61.50;41.47;;;30.70;99.90;;;;;;5103271;28;20020;-66
2023/06/25 11:20:40;;;;;;;70.70;48.30;;;30.60;99.90;;;;;;5103267;28;20022;-69
2023/06/25 11:23:10;;;;;;;101.38;67.80;;;30.70;99.90;;;;;;5086281;28;20035;-74
2023/06/25 11:25:37;;;;;;;150.57;104.45;;;30.60;99.90;;;;;;5101817;28;20620;-76
2023/06/25 11:28:07;;;;;;;101.40;70.47;;;30.60;99.90;;;;;;5104633;28;20020;-70
2023/06/25 11:30:34;;;;;;;128.02;85.22;;;30.60;99.90;;;;;;5102630;28;20040;-69
2023/06/25 11:33:11;;;;;;;49.17;31.58;;;30.50;99.90;;;;;;5098720;28;20438;-70
2023/06/25 11:35:38;;;;;;;617.90;408.20;;;30.50;99.90;;;;;;5102739;28;20072;-70
2023/06/25 11:38:05;;;;;;;742.45;520.70;;;30.50;99.90;;;;;;5101555;28;20504;-70
2023/06/25 11:40:33;;;;;;;794.55;580.17;;;30.40;99.90;;;;;;5113297;28;20032;-70
2023/06/25 11:43:00;;;;;;;1156.30;795.88;;;30.30;99.90;;;;;;5099860;28;20060;-70
2023/06/25 11:45:26;;;;;;;53.92;39.58;;;30.20;99.90;;;;;;5095450;28;20536;-71
2023/06/25 11:47:54;;;;;;;56.38;36.20;;;30.20;99.90;;;;;;5087095;28;20040;-70
2023/06/25 11:50:25;;;;;;;42.35;27.30;;;30.20;99.90;;;;;;5099471;28;20533;-71
2023/06/25 11:52:55;;;;;;;232.70;190.20;;;30.10;99.90;;;;;;5081247;28;20091;-71
2023/06/25 11:55:22;;;;;;;73.72;60.55;;;30.00;99.90;;;;;;5100676;28;20024;-75
2023/06/25 11:57:49;;;;;;;136.90;98.07;;;30.00;99.90;;;;;;5082577;28;20024;-75
2023/06/25 12:00:16;;;;;;;147.15;107.38;;;30.00;99.90;;;;;;5084436;28;20046;-75
2023/06/25 12:02:43;;;;;;;58.17;37.13;;;30.00;99.90;;;;;;5107622;28;20020;-74
2023/06/25 12:05:10;;;;;;;144.88;95.38;;;30.00;99.90;;;;;;5102315;28;20328;-74
2023/06/25 12:07:37;;;;;;;169.85;121.25;;;30.00;99.90;;;;;;5086122;28;20434;-74
2023/06/25 12:10:05;;;;;;;124.57;77.15;;;30.00;99.90;;;;;;5091652;28;20023;-76
2023/06/25 12:12:31;;;;;;;156.52;108.40;;;30.20;99.90;;;;;;5088001;28;20024;-74
2023/06/25 12:14:58;;;;;;;131.57;80.00;;;30.20;99.90;;;;;;5103289;28;20020;-76
2023/06/25 12:17:24;;;;;;;99.97;59.47;;;30.20;99.90;;;;;;5107253;28;20048;-67
2023/06/25 12:19:51;;;;;;;73.72;44.33;;;30.20;99.90;;;;;;5116637;28;20352;-71
2023/06/25 12:22:17;;;;;;;121.45;87.15;;;30.10;99.90;;;;;;5108118;28;20035;-72
2023/06/25 12:24:44;;;;;;;72.07;51.00;;;30.00;99.90;;;;;;5118151;28;20024;-72
2023/06/25 12:27:10;;;;;;;91.25;62.58;;;30.00;99.90;;;;;;5113816;28;20028;-74
2023/06/25 12:29:37;;;;;;;90.65;62.00;;;30.10;99.90;;;;;;5115593;28;20040;-71